createdAt,value
2023-02-11T00:00:37.661Z,82.87
2023-02-11T00:01:37.650Z,82.97
2023-02-11T00:02:37.624Z,83.07
2023-02-11T00:03:37.657Z,82.97
2023-02-11T00:04:37.596Z,82.76
2023-02-11T00:05:37.587Z,82.62
2023-02-11T00:06:37.593Z,82.42
2023-02-11T00:07:37.589Z,82.52
2023-02-11T00:08:44.337Z,82.62
2023-02-11T00:09:39.385Z,82.73
2023-02-11T00:10:37.556Z,82.87
2023-02-11T00:11:37.531Z,83.07
2023-02-11T00:12:37.517Z,83.28
2023-02-11T00:13:39.378Z,83.39
2023-02-11T00:14:38.248Z,83.59
2023-02-11T00:15:37.475Z,83.59
2023-02-11T00:16:37.524Z,83.70
2023-02-11T00:17:37.473Z,83.70
2023-02-11T00:18:37.458Z,83.55
2023-02-11T00:19:37.454Z,83.55
2023-02-11T00:20:37.431Z,83.45
2023-02-11T00:21:43.944Z,83.14
2023-02-11T00:22:38.382Z,83.04
2023-02-11T00:23:37.384Z,82.83
2023-02-11T00:24:37.394Z,82.73
2023-02-11T00:25:37.386Z,82.83
2023-02-11T00:26:37.375Z,82.73
2023-02-11T00:27:37.566Z,82.31
2023-02-11T00:28:38.397Z,81.90
2023-02-11T00:29:37.334Z,81.80
2023-02-11T00:30:37.424Z,81.70
2023-02-11T00:31:37.449Z,81.59
2023-02-11T00:32:37.302Z,81.59
2023-02-11T00:33:37.274Z,81.70
2023-02-11T00:34:37.961Z,81.80
2023-02-11T00:35:37.887Z,81.90
2023-02-11T00:36:37.248Z,81.90
2023-02-11T00:37:37.224Z,82.04
2023-02-11T00:38:37.234Z,82.15
2023-02-11T00:39:37.797Z,82.25
2023-02-11T00:40:37.184Z,82.39
2023-02-11T00:41:37.210Z,82.70
2023-02-11T00:42:37.167Z,82.90
2023-02-11T00:43:37.156Z,83.01
2023-02-11T00:44:37.183Z,83.11
2023-02-11T00:45:37.157Z,83.36
2023-02-11T00:46:37.234Z,83.67
2023-02-11T00:47:39.397Z,83.87
2023-02-11T00:48:41.602Z,84.08
2023-02-11T00:49:37.089Z,83.98
2023-02-11T00:50:37.102Z,83.98
2023-02-11T00:51:43.596Z,84.12
2023-02-11T00:52:37.075Z,84.33
2023-02-11T00:53:37.046Z,84.43
2023-02-11T00:54:37.062Z,84.43
2023-02-11T00:55:37.994Z,84.53
2023-02-11T00:56:37.035Z,84.64
2023-02-11T00:57:37.007Z,84.84
2023-02-11T00:58:37.026Z,84.88
2023-02-11T00:59:37.014Z,85.19
2023-02-11T01:00:36.962Z,85.30
2023-02-11T01:01:37.544Z,85.40
2023-02-11T01:02:36.957Z,85.50
2023-02-11T01:03:36.965Z,85.61
2023-02-11T01:04:36.919Z,85.71
2023-02-11T01:05:37.035Z,85.71
2023-02-11T01:06:39.861Z,85.82
2023-02-11T01:07:37.935Z,85.96
2023-02-11T01:08:36.892Z,86.07
2023-02-11T01:09:36.925Z,86.37
2023-02-11T01:10:36.875Z,86.58
2023-02-11T01:11:36.882Z,86.79
2023-02-11T01:12:36.846Z,86.79
2023-02-11T01:13:36.834Z,86.68
2023-02-11T01:14:36.844Z,86.58
2023-02-11T01:15:36.905Z,86.58
2023-02-11T01:16:36.793Z,86.58
2023-02-11T01:17:36.801Z,86.68
2023-02-11T01:18:36.765Z,86.68
2023-02-11T01:19:36.774Z,86.79
2023-02-11T01:20:37.499Z,86.79
2023-02-11T01:21:43.323Z,86.89
2023-02-11T01:22:36.747Z,86.79
2023-02-11T01:23:36.725Z,86.79
2023-02-11T01:24:36.722Z,86.79
2023-02-11T01:25:36.709Z,86.68
2023-02-11T01:26:38.464Z,86.79
2023-02-11T01:27:36.699Z,86.99
2023-02-11T01:28:36.770Z,87.04
2023-02-11T01:29:37.433Z,87.14
2023-02-11T01:30:36.644Z,87.14
2023-02-11T01:31:36.767Z,87.24
2023-02-11T01:32:37.469Z,87.24
2023-02-11T01:33:36.615Z,87.35
2023-02-11T01:34:36.804Z,87.45
2023-02-11T01:35:37.539Z,87.55
2023-02-11T01:36:36.596Z,87.55
2023-02-11T01:37:36.585Z,87.45
2023-02-11T01:38:36.561Z,87.55
2023-02-11T01:39:36.547Z,87.66
2023-02-11T01:40:36.553Z,87.76
2023-02-11T01:41:43.503Z,87.76
2023-02-11T01:42:36.498Z,87.97
2023-02-11T01:43:36.520Z,88.01
2023-02-11T01:44:36.710Z,88.18
2023-02-11T01:45:37.074Z,88.18
2023-02-11T01:46:36.671Z,88.18
2023-02-11T01:47:36.471Z,88.07
2023-02-11T01:48:36.453Z,87.97
2023-02-11T01:49:36.718Z,87.90
2023-02-11T01:50:36.428Z,88.01
2023-02-11T01:51:36.432Z,88.21
2023-02-11T01:52:36.424Z,88.46
2023-02-11T01:53:36.392Z,88.78
2023-02-11T01:54:37.064Z,88.88
2023-02-11T01:55:36.404Z,88.98
2023-02-11T01:56:36.364Z,89.19
2023-02-11T01:57:36.360Z,89.29
2023-02-11T01:58:36.987Z,89.29
2023-02-11T01:59:36.336Z,89.29
2023-02-11T02:00:36.334Z,89.04
2023-02-11T02:01:36.344Z,89.04
2023-02-11T02:02:36.286Z,89.04
2023-02-11T02:03:36.292Z,88.94
2023-02-11T02:04:38.890Z,89.04
2023-02-11T02:05:38.008Z,89.15
2023-02-11T02:06:36.233Z,89.15
2023-02-11T02:07:36.252Z,89.04
2023-02-11T02:08:36.232Z,89.09
2023-02-11T02:09:37.081Z,89.19
2023-02-11T02:10:36.209Z,89.04
2023-02-11T02:11:36.185Z,89.19
2023-02-11T02:12:36.178Z,89.36
2023-02-11T02:13:37.016Z,89.36
2023-02-11T02:14:36.177Z,89.15
2023-02-11T02:15:36.149Z,89.04
2023-02-11T02:16:36.742Z,88.94
2023-02-11T02:17:36.171Z,89.04
2023-02-11T02:18:36.126Z,89.15
2023-02-11T02:19:36.079Z,89.04
2023-02-11T02:20:36.098Z,88.94
2023-02-11T02:21:42.876Z,88.94
2023-02-11T02:22:36.079Z,88.94
2023-02-11T02:23:39.555Z,88.94
2023-02-11T02:24:36.842Z,89.04
2023-02-11T02:25:36.023Z,89.04
2023-02-11T02:26:36.034Z,88.94
2023-02-11T02:27:35.993Z,88.84
2023-02-11T02:28:35.986Z,88.73
2023-02-11T02:29:35.988Z,88.73
2023-02-11T02:30:35.991Z,88.73
2023-02-11T02:31:36.206Z,88.84
2023-02-11T02:32:35.964Z,88.84
2023-02-11T02:33:35.944Z,88.73
2023-02-11T02:34:35.944Z,88.73
2023-02-11T02:35:35.929Z,88.63
2023-02-11T02:36:35.922Z,88.73
2023-02-11T02:37:35.893Z,88.84
2023-02-11T02:38:35.874Z,88.94
2023-02-11T02:39:36.618Z,88.84
2023-02-11T02:40:35.879Z,88.84
2023-02-11T02:41:42.571Z,88.98
2023-02-11T02:42:38.553Z,89.29
2023-02-11T02:43:37.635Z,89.40
2023-02-11T02:44:35.813Z,89.61
2023-02-11T02:45:36.431Z,89.71
2023-02-11T02:46:35.809Z,89.71
2023-02-11T02:47:35.803Z,89.71
2023-02-11T02:48:35.865Z,89.81
2023-02-11T02:49:35.790Z,89.71
2023-02-11T02:50:35.754Z,89.81
2023-02-11T02:51:35.752Z,89.92
2023-02-11T02:52:35.714Z,89.81
2023-02-11T02:53:35.709Z,89.81
2023-02-11T02:54:36.526Z,90.02
2023-02-11T02:55:35.716Z,90.02
2023-02-11T02:56:35.670Z,90.02
2023-02-11T02:57:35.685Z,89.92
2023-02-11T02:58:35.647Z,89.92
2023-02-11T02:59:35.643Z,89.92
2023-02-11T03:00:36.494Z,89.96
2023-02-11T03:01:42.170Z,90.27
2023-02-11T03:02:35.618Z,90.37
2023-02-11T03:03:35.620Z,90.48
2023-02-11T03:04:35.602Z,90.58
2023-02-11T03:05:36.181Z,90.37
2023-02-11T03:06:35.591Z,90.37
2023-02-11T03:07:36.108Z,90.37
2023-02-11T03:08:35.555Z,90.27
2023-02-11T03:09:36.099Z,90.17
2023-02-11T03:10:35.522Z,90.17
2023-02-11T03:11:35.532Z,90.17
2023-02-11T03:12:35.522Z,90.17
2023-02-11T03:13:36.120Z,90.10
2023-02-11T03:14:35.501Z,90.20
2023-02-11T03:15:35.488Z,90.41
2023-02-11T03:16:35.481Z,90.52
2023-02-11T03:17:36.177Z,90.41
2023-02-11T03:18:35.461Z,90.52
2023-02-11T03:19:35.476Z,90.56
2023-02-11T03:20:38.052Z,90.56
2023-02-11T03:21:41.922Z,90.87
2023-02-11T03:22:35.384Z,91.39
2023-02-11T03:23:36.153Z,91.49
2023-02-11T03:24:35.384Z,91.60
2023-02-11T03:25:35.382Z,91.74
2023-02-11T03:26:35.565Z,91.95
2023-02-11T03:27:35.334Z,92.16
2023-02-11T03:28:35.420Z,92.16
2023-02-11T03:29:35.327Z,92.47
2023-02-11T03:30:35.311Z,92.57
2023-02-11T03:31:35.415Z,92.68
2023-02-11T03:32:35.282Z,92.99
2023-02-11T03:33:35.264Z,93.14
2023-02-11T03:34:35.264Z,93.03
2023-02-11T03:35:35.242Z,92.93
2023-02-11T03:36:35.217Z,92.93
2023-02-11T03:37:35.235Z,92.82
2023-02-11T03:38:36.120Z,92.82
2023-02-11T03:39:36.124Z,93.03
2023-02-11T03:40:36.156Z,93.14
2023-02-11T03:41:41.720Z,93.24
2023-02-11T03:42:35.168Z,93.45
2023-02-11T03:43:35.150Z,93.55
2023-02-11T03:44:35.136Z,93.66
2023-02-11T03:45:35.147Z,93.55
2023-02-11T03:46:35.114Z,93.45
2023-02-11T03:47:35.301Z,93.35
2023-02-11T03:48:35.736Z,93.30
2023-02-11T03:49:35.153Z,93.30
2023-02-11T03:50:35.144Z,93.30
2023-02-11T03:51:35.041Z,93.30
2023-02-11T03:52:35.029Z,93.20
2023-02-11T03:53:35.047Z,93.20
2023-02-11T03:54:35.010Z,93.20
2023-02-11T03:55:34.995Z,93.20
2023-02-11T03:56:34.995Z,93.24
2023-02-11T03:57:34.972Z,93.24
2023-02-11T03:58:35.646Z,93.24
2023-02-11T03:59:35.970Z,93.24
2023-02-11T04:00:35.726Z,93.14
2023-02-11T04:01:42.981Z,93.03
2023-02-11T04:02:34.925Z,93.03
2023-02-11T04:03:34.981Z,92.82
2023-02-11T04:04:34.901Z,92.82
2023-02-11T04:05:35.762Z,92.82
2023-02-11T04:06:35.700Z,92.93
2023-02-11T04:07:34.869Z,92.82
2023-02-11T04:08:34.858Z,92.93
2023-02-11T04:09:35.704Z,93.14
2023-02-11T04:10:34.827Z,93.03
2023-02-11T04:11:34.838Z,93.14
2023-02-11T04:12:34.791Z,93.03
2023-02-11T04:13:34.787Z,93.03
2023-02-11T04:14:34.765Z,93.14
2023-02-11T04:15:34.764Z,93.03
2023-02-11T04:16:34.791Z,92.93
2023-02-11T04:17:36.103Z,92.82
2023-02-11T04:18:35.706Z,92.82
2023-02-11T04:19:34.736Z,92.82
2023-02-11T04:20:34.713Z,92.93
2023-02-11T04:21:34.757Z,92.82
2023-02-11T04:22:34.698Z,92.82
2023-02-11T04:23:35.192Z,92.72
2023-02-11T04:24:35.594Z,92.72
2023-02-11T04:25:34.661Z,92.82
2023-02-11T04:26:34.645Z,92.93
2023-02-11T04:27:34.649Z,93.14
2023-02-11T04:28:34.665Z,93.24
2023-02-11T04:29:35.193Z,93.29
2023-02-11T04:30:35.774Z,93.29
2023-02-11T04:31:34.620Z,93.39
2023-02-11T04:32:34.577Z,93.39
2023-02-11T04:33:34.569Z,93.60
2023-02-11T04:34:34.531Z,93.49
2023-02-11T04:35:34.522Z,93.60
2023-02-11T04:36:36.310Z,93.60
2023-02-11T04:37:37.210Z,93.60
2023-02-11T04:38:34.497Z,93.60
2023-02-11T04:39:34.470Z,93.64
2023-02-11T04:40:34.463Z,93.74
2023-02-11T04:41:34.462Z,93.74
2023-02-11T04:42:34.447Z,93.85
2023-02-11T04:43:34.423Z,94.06
2023-02-11T04:44:34.442Z,94.32
2023-02-11T04:45:34.414Z,94.32
2023-02-11T04:46:34.397Z,94.64
2023-02-11T04:47:34.370Z,94.84
2023-02-11T04:48:34.390Z,95.05
2023-02-11T04:49:34.367Z,95.15
2023-02-11T04:50:34.356Z,95.05
2023-02-11T04:51:40.915Z,94.59
2023-02-11T04:52:34.320Z,94.59
2023-02-11T04:53:34.350Z,94.59
2023-02-11T04:54:34.316Z,94.18
2023-02-11T04:55:34.288Z,93.87
2023-02-11T04:56:34.828Z,93.66
2023-02-11T04:57:34.274Z,93.45
2023-02-11T04:58:34.261Z,93.20
2023-02-11T04:59:34.240Z,93.20
2023-02-11T05:00:34.757Z,93.20
2023-02-11T05:01:34.247Z,93.30
2023-02-11T05:02:34.207Z,93.30
2023-02-11T05:03:34.190Z,93.30
2023-02-11T05:04:34.229Z,93.20
2023-02-11T05:05:34.165Z,93.20
2023-02-11T05:06:34.162Z,93.20
2023-02-11T05:07:34.159Z,93.20
2023-02-11T05:08:34.172Z,93.10
2023-02-11T05:09:34.120Z,93.10
2023-02-11T05:10:34.736Z,92.94
2023-02-11T05:11:40.609Z,92.84
2023-02-11T05:12:34.122Z,92.84
2023-02-11T05:13:34.099Z,92.94
2023-02-11T05:14:36.150Z,92.84
2023-02-11T05:15:35.770Z,92.74
2023-02-11T05:16:34.069Z,92.74
2023-02-11T05:17:34.069Z,92.63
2023-02-11T05:18:34.043Z,92.43
2023-02-11T05:19:34.035Z,92.18
2023-02-11T05:20:34.004Z,91.66
2023-02-11T05:21:33.982Z,91.49
2023-02-11T05:22:34.840Z,91.49
2023-02-11T05:23:34.746Z,91.49
2023-02-11T05:24:34.668Z,91.70
2023-02-11T05:25:34.827Z,91.70
2023-02-11T05:26:33.935Z,91.80
2023-02-11T05:27:33.918Z,91.91
2023-02-11T05:28:34.062Z,92.11
2023-02-11T05:29:33.899Z,92.11
2023-02-11T05:30:34.145Z,91.91
2023-02-11T05:31:33.897Z,91.80
2023-02-11T05:32:35.686Z,91.80
2023-02-11T05:33:37.334Z,91.91
2023-02-11T05:34:35.771Z,92.01
2023-02-11T05:35:33.849Z,92.11
2023-02-11T05:36:34.258Z,91.91
2023-02-11T05:37:33.844Z,91.66
2023-02-11T05:38:34.265Z,91.70
2023-02-11T05:39:34.636Z,91.70
2023-02-11T05:40:34.759Z,91.70
2023-02-11T05:41:41.699Z,91.91
2023-02-11T05:42:33.772Z,92.01
2023-02-11T05:43:34.270Z,92.01
2023-02-11T05:44:33.769Z,92.01
2023-02-11T05:45:34.790Z,92.11
2023-02-11T05:46:34.317Z,92.11
2023-02-11T05:47:34.803Z,92.22
2023-02-11T05:48:33.709Z,92.28
2023-02-11T05:49:35.143Z,92.28
2023-02-11T05:50:35.109Z,92.18
2023-02-11T05:51:33.831Z,92.18
2023-02-11T05:52:33.670Z,92.18
2023-02-11T05:53:34.868Z,91.97
2023-02-11T05:54:33.643Z,92.18
2023-02-11T05:55:34.865Z,92.18
2023-02-11T05:56:34.206Z,92.18
2023-02-11T05:57:33.606Z,92.28
2023-02-11T05:58:33.824Z,92.28
2023-02-11T05:59:34.889Z,92.38
2023-02-11T06:00:35.201Z,92.49
2023-02-11T06:01:41.155Z,92.49
2023-02-11T06:02:33.585Z,92.49
2023-02-11T06:03:34.400Z,92.59
2023-02-11T06:04:34.322Z,92.59
2023-02-11T06:05:34.326Z,92.69
2023-02-11T06:06:34.824Z,92.49
2023-02-11T06:07:35.921Z,92.24
2023-02-11T06:08:33.508Z,92.14
2023-02-11T06:09:34.252Z,91.72
2023-02-11T06:10:33.668Z,91.20
2023-02-11T06:11:36.345Z,91.00
2023-02-11T06:12:36.844Z,91.20
2023-02-11T06:13:33.823Z,91.20
2023-02-11T06:14:34.025Z,91.20
2023-02-11T06:15:34.302Z,91.00
2023-02-11T06:16:34.325Z,90.89
2023-02-11T06:17:33.404Z,90.48
2023-02-11T06:18:34.739Z,90.48
2023-02-11T06:19:34.229Z,90.58
2023-02-11T06:20:34.223Z,90.48
2023-02-11T06:21:43.920Z,90.27
2023-02-11T06:22:35.149Z,90.37
2023-02-11T06:23:33.307Z,90.58
2023-02-11T06:24:58.561Z,90.69
2023-02-11T06:25:35.823Z,90.89
2023-02-11T06:26:33.271Z,90.89
2023-02-11T06:27:34.308Z,91.00
2023-02-11T06:28:33.353Z,91.10
2023-02-11T06:29:34.962Z,91.10
2023-02-11T06:30:35.340Z,91.16
2023-02-11T06:31:41.348Z,90.85
2023-02-11T06:32:44.026Z,90.95
2023-02-11T06:33:34.765Z,90.85
2023-02-11T06:34:35.832Z,90.75
2023-02-11T06:35:33.196Z,90.64
2023-02-11T06:36:35.847Z,90.54
2023-02-11T06:37:33.733Z,90.44
2023-02-11T06:38:34.759Z,90.12
2023-02-11T06:39:33.322Z,89.92
2023-02-11T06:40:33.965Z,89.81
2023-02-11T06:41:34.236Z,89.81
2023-02-11T06:42:33.092Z,89.81
2023-02-11T06:43:33.732Z,89.81
2023-02-11T06:44:33.086Z,89.81
2023-02-11T06:45:34.242Z,89.92
2023-02-11T06:46:33.722Z,89.92
2023-02-11T06:47:35.840Z,89.81
2023-02-11T06:48:35.372Z,89.81
2023-02-11T06:49:33.012Z,89.92
2023-02-11T06:50:33.022Z,90.02
2023-02-11T06:51:33.014Z,89.87
2023-02-11T06:52:33.928Z,89.87
2023-02-11T06:53:32.979Z,89.67
2023-02-11T06:54:32.967Z,89.61
2023-02-11T06:55:33.051Z,89.71
2023-02-11T06:56:32.925Z,89.81
2023-02-11T06:57:32.946Z,90.02
2023-02-11T06:58:32.933Z,90.02
2023-02-11T06:59:32.920Z,90.12
2023-02-11T07:00:32.887Z,90.23
2023-02-11T07:01:39.444Z,90.44
2023-02-11T07:02:32.887Z,90.44
2023-02-11T07:03:32.860Z,90.44
2023-02-11T07:04:32.842Z,90.44
2023-02-11T07:05:32.904Z,90.44
2023-02-11T07:06:33.978Z,90.54
2023-02-11T07:07:34.215Z,90.54
2023-02-11T07:08:32.804Z,90.54
2023-02-11T07:09:33.787Z,90.44
2023-02-11T07:10:32.790Z,90.54
2023-02-11T07:11:32.766Z,90.64
2023-02-11T07:12:32.781Z,90.75
2023-02-11T07:13:32.759Z,90.81
2023-02-11T07:14:32.737Z,90.60
2023-02-11T07:15:32.724Z,90.50
2023-02-11T07:16:33.535Z,90.39
2023-02-11T07:17:32.710Z,90.14
2023-02-11T07:18:32.681Z,90.04
2023-02-11T07:19:32.688Z,90.14
2023-02-11T07:20:32.660Z,90.04
2023-02-11T07:21:39.499Z,89.83
2023-02-11T07:22:32.657Z,89.73
2023-02-11T07:23:32.636Z,89.73
2023-02-11T07:24:35.392Z,89.83
2023-02-11T07:25:33.428Z,89.83
2023-02-11T07:26:32.680Z,89.73
2023-02-11T07:27:32.628Z,89.52
2023-02-11T07:28:32.631Z,89.42
2023-02-11T07:29:32.587Z,89.42
2023-02-11T07:30:32.548Z,89.21
2023-02-11T07:31:32.764Z,89.21
2023-02-11T07:32:32.536Z,89.21
2023-02-11T07:33:32.552Z,89.31
2023-02-11T07:34:32.582Z,89.42
2023-02-11T07:35:32.504Z,89.38
2023-02-11T07:36:32.485Z,89.38
2023-02-11T07:37:32.486Z,89.38
2023-02-11T07:38:32.473Z,89.17
2023-02-11T07:39:32.472Z,89.17
2023-02-11T07:40:32.464Z,89.28
2023-02-11T07:41:39.409Z,89.07
2023-02-11T07:42:32.418Z,89.07
2023-02-11T07:43:33.032Z,88.96
2023-02-11T07:44:32.390Z,88.71
2023-02-11T07:45:32.416Z,88.71
2023-02-11T07:46:32.470Z,88.51
2023-02-11T07:47:32.367Z,88.30
2023-02-11T07:48:32.356Z,88.30
2023-02-11T07:49:32.373Z,88.20
2023-02-11T07:50:32.352Z,87.95
2023-02-11T07:51:32.339Z,87.85
2023-02-11T07:52:32.323Z,87.85
2023-02-11T07:53:32.301Z,87.85
2023-02-11T07:54:32.308Z,87.85
2023-02-11T07:55:32.297Z,87.43
2023-02-11T07:56:32.258Z,87.33
2023-02-11T07:57:32.314Z,87.47
2023-02-11T07:58:32.238Z,87.47
2023-02-11T07:59:32.252Z,87.68
2023-02-11T08:00:32.225Z,87.74
2023-02-11T08:01:39.082Z,87.54
2023-02-11T08:02:33.046Z,87.43
2023-02-11T08:03:32.198Z,87.33
2023-02-11T08:04:32.181Z,87.23
2023-02-11T08:05:32.184Z,87.12
2023-02-11T08:06:32.177Z,87.23
2023-02-11T08:07:32.143Z,87.23
2023-02-11T08:08:32.147Z,87.54
2023-02-11T08:09:34.426Z,88.06
2023-02-11T08:10:32.113Z,88.46
2023-02-11T08:11:33.052Z,88.78
2023-02-11T08:12:32.079Z,88.78
2023-02-11T08:13:32.094Z,88.88
2023-02-11T08:14:32.064Z,89.29
2023-02-11T08:15:32.080Z,89.71
2023-02-11T08:16:32.116Z,89.50
2023-02-11T08:17:32.031Z,89.61
2023-02-11T08:18:32.029Z,89.71
2023-02-11T08:19:35.110Z,89.92
2023-02-11T08:20:32.000Z,90.12
2023-02-11T08:21:38.923Z,90.33
2023-02-11T08:22:31.990Z,90.95
2023-02-11T08:23:31.969Z,91.67
2023-02-11T08:24:31.973Z,91.78
2023-02-11T08:25:31.944Z,91.36
2023-02-11T08:26:31.948Z,91.47
2023-02-11T08:27:31.924Z,91.78
2023-02-11T08:28:32.078Z,91.99
2023-02-11T08:29:31.915Z,91.88
2023-02-11T08:30:31.877Z,91.78
2023-02-11T08:31:32.022Z,91.88
2023-02-11T08:32:31.872Z,91.94
2023-02-11T08:33:31.868Z,91.94
2023-02-11T08:34:32.556Z,92.15
2023-02-11T08:35:31.848Z,92.05
2023-02-11T08:36:31.810Z,92.05
2023-02-11T08:37:33.108Z,92.36
2023-02-11T08:38:31.824Z,92.57
2023-02-11T08:39:32.474Z,92.67
2023-02-11T08:40:32.518Z,92.36
2023-02-11T08:41:31.794Z,92.36
2023-02-11T08:42:31.741Z,92.25
2023-02-11T08:43:31.749Z,92.36
2023-02-11T08:44:31.748Z,92.57
2023-02-11T08:45:31.840Z,92.57
2023-02-11T08:46:31.854Z,92.57
2023-02-11T08:47:31.724Z,92.77
2023-02-11T08:48:31.707Z,92.87
2023-02-11T08:49:31.743Z,92.87
2023-02-11T08:50:31.684Z,92.36
2023-02-11T08:51:31.650Z,92.00
2023-02-11T08:52:31.693Z,92.00
2023-02-11T08:53:31.641Z,92.11
2023-02-11T08:54:31.649Z,92.21
2023-02-11T08:55:31.609Z,92.11
2023-02-11T08:56:31.603Z,92.00
2023-02-11T08:57:31.603Z,92.21
2023-02-11T08:58:33.466Z,92.32
2023-02-11T08:59:33.510Z,92.00
2023-02-11T09:00:31.574Z,91.80
2023-02-11T09:01:31.595Z,91.69
2023-02-11T09:02:31.602Z,91.80
2023-02-11T09:03:31.528Z,91.90
2023-02-11T09:04:32.474Z,92.21
2023-02-11T09:05:31.513Z,92.11
2023-02-11T09:06:31.524Z,92.00
2023-02-11T09:07:31.472Z,91.90
2023-02-11T09:08:31.462Z,91.96
2023-02-11T09:09:31.474Z,91.96
2023-02-11T09:10:31.441Z,91.75
2023-02-11T09:11:31.439Z,91.65
2023-02-11T09:12:31.450Z,91.65
2023-02-11T09:13:31.394Z,91.75
2023-02-11T09:14:31.403Z,91.65
2023-02-11T09:15:31.574Z,91.86
2023-02-11T09:16:31.446Z,91.65
2023-02-11T09:17:31.990Z,91.65
2023-02-11T09:18:34.510Z,91.65
2023-02-11T09:19:31.356Z,91.75
2023-02-11T09:20:31.364Z,91.96
2023-02-11T09:21:38.383Z,92.07
2023-02-11T09:22:31.327Z,92.07
2023-02-11T09:23:31.316Z,91.75
2023-02-11T09:24:31.305Z,91.65
2023-02-11T09:25:31.271Z,91.86
2023-02-11T09:26:31.268Z,91.96
2023-02-11T09:27:31.264Z,91.96
2023-02-11T09:28:31.330Z,91.86
2023-02-11T09:29:32.107Z,91.75
2023-02-11T09:30:31.405Z,91.50
2023-02-11T09:31:31.358Z,91.24
2023-02-11T09:32:31.227Z,91.13
2023-02-11T09:33:32.110Z,91.13
2023-02-11T09:34:31.180Z,91.24
2023-02-11T09:35:33.028Z,91.44
2023-02-11T09:36:32.130Z,91.75
2023-02-11T09:37:31.138Z,91.55
2023-02-11T09:38:31.135Z,91.34
2023-02-11T09:39:31.615Z,91.55
2023-02-11T09:40:31.127Z,91.86
2023-02-11T09:41:31.624Z,91.82
2023-02-11T09:42:31.614Z,91.71
2023-02-11T09:43:31.313Z,91.09
2023-02-11T09:44:31.101Z,91.24
2023-02-11T09:45:31.628Z,91.34
2023-02-11T09:46:31.736Z,91.65
2023-02-11T09:47:31.613Z,91.86
2023-02-11T09:48:31.560Z,92.13
2023-02-11T09:49:31.024Z,92.23
2023-02-11T09:50:31.630Z,92.33
2023-02-11T09:51:31.189Z,92.02
2023-02-11T09:52:31.186Z,91.92
2023-02-11T09:53:31.559Z,91.82
2023-02-11T09:54:31.615Z,91.40
2023-02-11T09:55:32.565Z,91.40
2023-02-11T09:56:31.615Z,91.26
2023-02-11T09:57:31.181Z,90.95
2023-02-11T09:58:31.142Z,90.53
2023-02-11T09:59:31.152Z,90.53
2023-02-11T10:00:32.556Z,90.43
2023-02-11T10:01:31.902Z,90.58
2023-02-11T10:02:32.555Z,90.47
2023-02-11T10:03:31.563Z,90.47
2023-02-11T10:04:31.688Z,90.47
2023-02-11T10:05:32.560Z,90.58
2023-02-11T10:06:31.493Z,90.58
2023-02-11T10:07:31.626Z,90.58
2023-02-11T10:08:31.565Z,90.53
2023-02-11T10:09:30.835Z,90.43
2023-02-11T10:10:31.566Z,90.53
2023-02-11T10:11:32.357Z,90.33
2023-02-11T10:12:32.059Z,90.12
2023-02-11T10:13:31.557Z,90.22
2023-02-11T10:14:31.569Z,90.33
2023-02-11T10:15:31.737Z,90.53
2023-02-11T10:16:30.774Z,90.64
2023-02-11T10:17:31.645Z,90.84
2023-02-11T10:18:31.570Z,90.95
2023-02-11T10:19:31.638Z,90.74
2023-02-11T10:20:31.357Z,90.64
2023-02-11T10:21:37.209Z,90.64
2023-02-11T10:23:25.506Z,90.95
2023-02-11T10:24:25.503Z,90.95
2023-02-11T10:25:25.517Z,90.95
2023-02-11T10:26:25.473Z,90.84
2023-02-11T10:27:25.487Z,90.64
2023-02-11T10:28:25.561Z,90.43
2023-02-11T10:29:25.445Z,90.43
2023-02-11T10:30:25.520Z,90.53
2023-02-11T10:31:27.058Z,90.53
2023-02-11T10:32:26.541Z,90.59
2023-02-11T10:33:25.406Z,90.64
2023-02-11T10:34:25.380Z,90.74
2023-02-11T10:35:25.395Z,90.74
2023-02-11T10:36:25.357Z,90.84
2023-02-11T10:37:25.511Z,90.95
2023-02-11T10:38:25.355Z,91.05
2023-02-11T10:39:25.351Z,91.05
2023-02-11T10:40:25.342Z,91.05
2023-02-11T10:41:25.311Z,91.01
2023-02-11T10:42:25.310Z,91.11
2023-02-11T10:43:25.295Z,91.11
2023-02-11T10:44:25.268Z,90.91
2023-02-11T10:45:25.292Z,90.76
2023-02-11T10:46:25.286Z,90.45
2023-02-11T10:47:25.311Z,90.25
2023-02-11T10:48:25.224Z,89.94
2023-02-11T10:49:25.218Z,89.69
2023-02-11T10:50:25.558Z,89.48
2023-02-11T10:51:27.048Z,89.38
2023-02-11T10:52:25.191Z,89.38
2023-02-11T10:53:25.163Z,89.28
2023-02-11T10:54:25.170Z,89.07
2023-02-11T10:55:25.165Z,88.82
2023-02-11T10:56:25.175Z,88.72
2023-02-11T10:57:25.128Z,88.62
2023-02-11T10:58:25.119Z,88.51
2023-02-11T10:59:25.121Z,88.51
2023-02-11T11:00:25.107Z,88.31
2023-02-11T11:02:21.962Z,88.20
2023-02-11T11:03:21.460Z,88.10
2023-02-11T11:04:21.506Z,87.85
2023-02-11T11:05:21.451Z,87.85
2023-02-11T11:06:22.019Z,87.65
2023-02-11T11:07:21.457Z,87.54
2023-02-11T11:08:21.414Z,87.54
2023-02-11T11:09:21.441Z,87.48
2023-02-11T11:10:21.352Z,87.59
2023-02-11T11:11:21.350Z,87.79
2023-02-11T11:12:21.358Z,88.10
2023-02-11T11:13:21.343Z,88.41
2023-02-11T11:14:21.316Z,88.65
2023-02-11T11:15:21.306Z,88.86
2023-02-11T11:16:21.397Z,89.07
2023-02-11T11:17:21.320Z,89.28
2023-02-11T11:18:23.258Z,89.38
2023-02-11T11:19:21.306Z,89.48
2023-02-11T11:20:21.306Z,89.48
2023-02-11T11:21:21.243Z,89.38
2023-02-11T11:22:27.777Z,89.28
2023-02-11T11:23:21.255Z,89.38
2023-02-11T11:24:21.215Z,89.34
2023-02-11T11:25:21.227Z,89.34
2023-02-11T11:26:21.212Z,89.23
2023-02-11T11:27:21.206Z,89.13
2023-02-11T11:28:21.232Z,89.03
2023-02-11T11:29:21.158Z,89.03
2023-02-11T11:30:21.182Z,89.03
2023-02-11T11:31:21.275Z,89.03
2023-02-11T11:32:21.146Z,89.03
2023-02-11T11:33:21.176Z,89.13
2023-02-11T11:34:21.101Z,89.23
2023-02-11T11:35:21.091Z,89.34
2023-02-11T11:36:21.074Z,89.34
2023-02-11T11:37:21.277Z,89.23
2023-02-11T11:38:21.082Z,89.23
2023-02-11T11:39:21.032Z,89.23
2023-02-11T11:40:21.987Z,89.23
2023-02-11T11:41:21.064Z,89.23
2023-02-11T11:42:27.560Z,89.13
2023-02-11T11:43:23.274Z,89.23
2023-02-11T11:44:21.020Z,89.09
2023-02-11T11:45:20.994Z,88.89
2023-02-11T11:46:21.017Z,88.47
2023-02-11T11:47:20.960Z,88.26
2023-02-11T11:48:20.966Z,88.17
2023-02-11T11:49:20.923Z,88.06
2023-02-11T11:50:21.310Z,88.06
2023-02-11T11:51:20.888Z,88.06
2023-02-11T11:52:20.884Z,87.92
2023-02-11T11:53:20.893Z,87.81
2023-02-11T11:54:20.883Z,87.71
2023-02-11T11:55:20.846Z,87.51
2023-02-11T11:56:20.847Z,87.30
2023-02-11T11:57:21.040Z,87.19
2023-02-11T11:58:20.828Z,87.09
2023-02-11T11:59:20.835Z,87.19
2023-02-11T12:00:20.832Z,87.40
2023-02-11T12:01:20.852Z,87.51
2023-02-11T12:02:27.373Z,87.40
2023-02-11T12:03:20.881Z,87.30
2023-02-11T12:04:20.842Z,87.26
2023-02-11T12:05:20.763Z,87.05
2023-02-11T12:06:20.765Z,86.95
2023-02-11T12:07:20.732Z,86.85
2023-02-11T12:08:20.720Z,86.74
2023-02-11T12:09:20.721Z,86.64
2023-02-11T12:10:20.696Z,86.64
2023-02-11T12:11:20.682Z,86.64
2023-02-11T12:12:20.669Z,86.85
2023-02-11T12:13:20.653Z,87.05
2023-02-11T12:14:20.669Z,87.05
2023-02-11T12:15:20.651Z,86.85
2023-02-11T12:16:20.721Z,86.74
2023-02-11T12:17:20.642Z,86.74
2023-02-11T12:18:20.630Z,86.64
2023-02-11T12:19:20.594Z,86.54
2023-02-11T12:20:20.585Z,86.54
2023-02-11T12:21:20.584Z,86.54
2023-02-11T12:22:20.798Z,86.54
2023-02-11T12:23:20.548Z,86.54
2023-02-11T12:24:20.551Z,86.64
2023-02-11T12:25:20.552Z,86.74
2023-02-11T12:26:20.506Z,86.95
2023-02-11T12:27:20.509Z,86.95
2023-02-11T12:28:20.562Z,87.05
2023-02-11T12:29:20.521Z,87.19
2023-02-11T12:30:20.508Z,87.36
2023-02-11T12:31:20.610Z,87.60
2023-02-11T12:32:20.470Z,87.57
2023-02-11T12:33:20.458Z,87.57
2023-02-11T12:34:20.409Z,87.57
2023-02-11T12:35:20.484Z,87.46
2023-02-11T12:36:20.401Z,87.57
2023-02-11T12:37:20.418Z,87.46
2023-02-11T12:38:20.397Z,87.36
2023-02-11T12:39:20.366Z,87.26
2023-02-11T12:40:20.386Z,87.05
2023-02-11T12:41:20.368Z,86.91
2023-02-11T12:42:20.327Z,86.91
2023-02-11T12:43:20.365Z,87.01
2023-02-11T12:44:20.344Z,87.12
2023-02-11T12:45:20.330Z,87.01
2023-02-11T12:46:20.324Z,86.91
2023-02-11T12:47:20.719Z,86.91
2023-02-11T12:48:20.266Z,86.80
2023-02-11T12:49:20.256Z,86.70
2023-02-11T12:50:20.251Z,86.70
2023-02-11T12:51:20.259Z,86.80
2023-02-11T12:52:20.219Z,86.91
2023-02-11T12:53:20.253Z,86.91
2023-02-11T12:54:20.215Z,87.01